Maersk Jubail — 9HA4558 — position and weather

sailwx.info

Track history (hours):
 
Tides and Currents Weather Stations Pressure Air Temp Water Temp Dewpoint Dewpoint Depression Visibility Wind Speed Wind Dir Waves Ship Positions

Maersk Jubail

Last reported at 2018-Feb-10 02:39 UTC. Time now 2018-Feb-22 13:11 UTC.
Position N 05°19' E 000°27'.
Warning: this ship's position is 12 days out of date.

Length 222 m; draft 7.8 m.

Type: Ship. MMSI: 248206000.

Date/timePositionNaut miles runAvg speedWind from/ knotsBaromVisibWave heightAir tempDewpointWater temp
2018-Feb-10 02:39N 05°19' E 000°27'317.6
2018-Feb-10 02:30N 05°21' E 000°25'817.5
2018-Feb-10 02:00N 05°26' E 000°18'917.4
2018-Feb-10 01:30N 05°31' E 000°11'815.5
2018-Feb-10 00:59N 05°36' E 000°05'4 8.6
2018-Feb-10 00:30N 05°38' E 000°01'1 1.2
2018-Feb-09 23:59N 05°38' E 000°01'0 0.0
2018-Feb-09 23:29N 05°38' E 000°01'0 0.0
2018-Feb-09 22:59N 05°38' E 000°01'0 0.1
2018-Feb-09 22:44N 05°38' E 000°01'2 0.1
2018-Feb-08 16:00N 05°37' E 000°03'3 6.0
2018-Feb-08 15:30N 05°34' E 000°03'0 0.0
2018-Feb-08 01:28N 05°34' E 000°03'0 0.0
2018-Feb-08 00:58N 05°34' E 000°03'0 0.0
2018-Feb-08 00:28N 05°34' E 000°03'0 0.0
2018-Feb-07 23:58N 05°34' E 000°03'0 0.0
2018-Feb-07 23:28N 05°34' E 000°03'0 0.0
2018-Feb-07 22:58N 05°34' E 000°03'0 0.0
2018-Feb-07 22:28N 05°34' E 000°03'0 0.0
2018-Feb-07 21:55N 05°34' E 000°03'0 0.0
2018-Feb-07 21:28N 05°34' E 000°03'0 0.0
2018-Feb-07 09:28N 05°34' E 000°03'0 0.0
2018-Feb-07 08:58N 05°34' E 000°03'0 0.0
2018-Feb-07 08:28N 05°34' E 000°03'0 0.0
2018-Feb-07 07:58N 05°34' E 000°03'0 0.0
2018-Feb-07 07:28N 05°34' E 000°03'0 0.0
2018-Feb-07 06:58N 05°34' E 000°03'0 0.0
2018-Feb-07 06:28N 05°34' E 000°03'0 0.0
2018-Feb-07 05:58N 05°34' E 000°03'0 0.0
2018-Feb-07 05:28N 05°34' E 000°03'0 0.0
2018-Feb-07 04:58N 05°34' E 000°03'0 0.0
2018-Feb-07 04:28N 05°34' E 000°03'0 0.0
2018-Feb-07 03:58N 05°34' E 000°03'0 0.0
2018-Feb-07 03:28N 05°34' E 000°03'0 0.0
2018-Feb-07 02:58N 05°34' E 000°03'0 0.0
2018-Feb-07 02:28N 05°34' E 000°03'0 0.0
2018-Feb-07 01:58N 05°34' E 000°03'0 0.0
2018-Feb-07 01:28N 05°34' E 000°03'0 0.0
2018-Feb-07 00:58N 05°34' E 000°03'0 0.1
2018-Feb-07 00:27N 05°34' E 000°03'3 7.2
2018-Feb-07 00:00N 05°31' E 000°04'613.0
2018-Feb-06 23:30N 05°24' E 000°03'714.5
2018-Feb-06 23:00N 05°19' W 000°02'714.5
2018-Feb-06 22:30N 05°14' W 000°07'714.2
2018-Feb-06 22:00N 05°09' W 000°12'914.7
2018-Feb-06 21:25N 05°03' W 000°18'2215.0
2018-Feb-06 19:59N 04°49' W 000°35'  
2018-Feb-04 02:01N 06°51' W 013°03'011.4
2018-Feb-04 02:00N 06°51' W 013°04'2911.4
2018-Feb-03 23:27N 07°08' W 013°27'511.2
2018-Feb-03 23:00N 07°11' W 013°31'611.3
2018-Feb-03 22:30N 07°14' W 013°36'611.2
2018-Feb-03 22:00N 07°17' W 013°41'610.9
2018-Feb-03 21:30N 07°20' W 013°45'510.9
2018-Feb-03 21:00N 07°24' W 013°49'611.2
2018-Feb-03 20:30N 07°27' W 013°54'2211.0
2018-Feb-03 18:30N 07°39' W 014°12'611.0
2018-Feb-03 17:59N 07°43' W 014°17'710.7
2018-Feb-03 17:23N 07°47' W 014°22'410.8
2018-Feb-03 17:00N 07°49' W 014°25'1111.1
2018-Feb-03 16:00N 07°56' W 014°34'611.3
2018-Feb-03 15:30N 07°59' W 014°39'611.4
2018-Feb-03 15:00N 08°02' W 014°44'611.5
2018-Feb-03 14:30N 08°06' W 014°48'611.1
2018-Feb-03 13:59N 08°09' W 014°53'511.3
2018-Feb-03 13:30N 08°13' W 014°57'611.4
2018-Feb-03 13:00N 08°16' W 015°02'611.4
2018-Feb-03 12:30N 08°21' W 015°06'611.3
2018-Feb-03 12:00N 08°25' W 015°09'611.2
2018-Feb-03 11:29N 08°29' W 015°13'511.5
2018-Feb-03 11:00N 08°34' W 015°17'711.5
2018-Feb-03 10:24N 08°39' W 015°21'511.6
2018-Feb-03 10:00N 08°43' W 015°24'611.6
2018-Feb-03 09:30N 08°47' W 015°27'611.6
2018-Feb-03 09:00N 08°52' W 015°31'611.7
2018-Feb-03 08:30N 08°56' W 015°35'611.7
2018-Feb-03 08:00N 09°01' W 015°38'1811.7
2018-Feb-03 06:30N 09°15' W 015°49'611.7
2018-Feb-03 05:59N 09°19' W 015°53'611.6
2018-Feb-03 05:30N 09°23' W 015°57'611.6
2018-Feb-03 04:57N 09°28' W 016°02'1212.1
2018-Feb-03 04:00N 09°37' W 016°09'612.3
2018-Feb-03 03:30N 09°41' W 016°13'1912.1
2018-Feb-03 01:58N 09°56' W 016°25'612.0
2018-Feb-03 01:30N 10°00' W 016°29'612.0
2018-Feb-03 01:00N 10°05' W 016°32'612.1
2018-Feb-03 00:30N 10°10' W 016°36'612.0
2018-Feb-02 23:58N 10°15' W 016°40'611.9
2018-Feb-02 23:30N 10°19' W 016°44'611.8
2018-Feb-02 23:00N 10°23' W 016°48'611.7
2018-Feb-02 22:29N 10°28' W 016°52'611.7
2018-Feb-02 22:00N 10°33' W 016°55'  
Track history (hours):
 
Tides and Currents Weather Stations Pressure Air Temp Water Temp Dewpoint Dewpoint Depression Visibility Wind Speed Wind Dir Waves Ship Positions

Maersk Jubail

Last reported at 2018-Feb-10 02:39 UTC. Time now 2018-Feb-22 13:11 UTC.
Position N 05°19' E 000°27'.
Warning: this ship's position is 12 days out of date.

Length 222 m; draft 7.8 m.

Type: Ship. MMSI: 248206000.

Date/timePositionNaut miles runAvg speedWind from/ knotsBaromVisibWave heightAir tempDewpointWater temp
2018-Feb-10 02:39N 05°19' E 000°27'317.6
2018-Feb-10 02:30N 05°21' E 000°25'817.5
2018-Feb-10 02:00N 05°26' E 000°18'917.4
2018-Feb-10 01:30N 05°31' E 000°11'815.5
2018-Feb-10 00:59N 05°36' E 000°05'4 8.6
2018-Feb-10 00:30N 05°38' E 000°01'1 1.2
2018-Feb-09 23:59N 05°38' E 000°01'0 0.0
2018-Feb-09 23:29N 05°38' E 000°01'0 0.0
2018-Feb-09 22:59N 05°38' E 000°01'0 0.1
2018-Feb-09 22:44N 05°38' E 000°01'2 0.1
2018-Feb-08 16:00N 05°37' E 000°03'3 6.0
2018-Feb-08 15:30N 05°34' E 000°03'0 0.0
2018-Feb-08 01:28N 05°34' E 000°03'0 0.0
2018-Feb-08 00:58N 05°34' E 000°03'0 0.0
2018-Feb-08 00:28N 05°34' E 000°03'0 0.0
2018-Feb-07 23:58N 05°34' E 000°03'0 0.0
2018-Feb-07 23:28N 05°34' E 000°03'0 0.0
2018-Feb-07 22:58N 05°34' E 000°03'0 0.0
2018-Feb-07 22:28N 05°34' E 000°03'0 0.0
2018-Feb-07 21:55N 05°34' E 000°03'0 0.0
2018-Feb-07 21:28N 05°34' E 000°03'0 0.0
2018-Feb-07 09:28N 05°34' E 000°03'0 0.0
2018-Feb-07 08:58N 05°34' E 000°03'0 0.0
2018-Feb-07 08:28N 05°34' E 000°03'0 0.0
2018-Feb-07 07:58N 05°34' E 000°03'0 0.0
2018-Feb-07 07:28N 05°34' E 000°03'0 0.0
2018-Feb-07 06:58N 05°34' E 000°03'0 0.0
2018-Feb-07 06:28N 05°34' E 000°03'0 0.0
2018-Feb-07 05:58N 05°34' E 000°03'0 0.0
2018-Feb-07 05:28N 05°34' E 000°03'0 0.0
2018-Feb-07 04:58N 05°34' E 000°03'0 0.0
2018-Feb-07 04:28N 05°34' E 000°03'0 0.0
2018-Feb-07 03:58N 05°34' E 000°03'0 0.0
2018-Feb-07 03:28N 05°34' E 000°03'0 0.0
2018-Feb-07 02:58N 05°34' E 000°03'0 0.0
2018-Feb-07 02:28N 05°34' E 000°03'0 0.0
2018-Feb-07 01:58N 05°34' E 000°03'0 0.0
2018-Feb-07 01:28N 05°34' E 000°03'0 0.0
2018-Feb-07 00:58N 05°34' E 000°03'0 0.1
2018-Feb-07 00:27N 05°34' E 000°03'3 7.2
2018-Feb-07 00:00N 05°31' E 000°04'613.0
2018-Feb-06 23:30N 05°24' E 000°03'714.5
2018-Feb-06 23:00N 05°19' W 000°02'714.5
2018-Feb-06 22:30N 05°14' W 000°07'714.2
2018-Feb-06 22:00N 05°09' W 000°12'914.7
2018-Feb-06 21:25N 05°03' W 000°18'2215.0
2018-Feb-06 19:59N 04°49' W 000°35'  
2018-Feb-04 02:01N 06°51' W 013°03'011.4
2018-Feb-04 02:00N 06°51' W 013°04'2911.4
2018-Feb-03 23:27N 07°08' W 013°27'511.2
2018-Feb-03 23:00N 07°11' W 013°31'611.3
2018-Feb-03 22:30N 07°14' W 013°36'611.2
2018-Feb-03 22:00N 07°17' W 013°41'610.9
2018-Feb-03 21:30N 07°20' W 013°45'510.9
2018-Feb-03 21:00N 07°24' W 013°49'611.2
2018-Feb-03 20:30N 07°27' W 013°54'2211.0
2018-Feb-03 18:30N 07°39' W 014°12'611.0
2018-Feb-03 17:59N 07°43' W 014°17'710.7
2018-Feb-03 17:23N 07°47' W 014°22'410.8
2018-Feb-03 17:00N 07°49' W 014°25'1111.1
2018-Feb-03 16:00N 07°56' W 014°34'611.3
2018-Feb-03 15:30N 07°59' W 014°39'611.4
2018-Feb-03 15:00N 08°02' W 014°44'611.5
2018-Feb-03 14:30N 08°06' W 014°48'611.1
2018-Feb-03 13:59N 08°09' W 014°53'511.3
2018-Feb-03 13:30N 08°13' W 014°57'611.4
2018-Feb-03 13:00N 08°16' W 015°02'611.4
2018-Feb-03 12:30N 08°21' W 015°06'611.3
2018-Feb-03 12:00N 08°25' W 015°09'611.2
2018-Feb-03 11:29N 08°29' W 015°13'511.5
2018-Feb-03 11:00N 08°34' W 015°17'711.5
2018-Feb-03 10:24N 08°39' W 015°21'511.6
2018-Feb-03 10:00N 08°43' W 015°24'611.6
2018-Feb-03 09:30N 08°47' W 015°27'611.6
2018-Feb-03 09:00N 08°52' W 015°31'611.7
2018-Feb-03 08:30N 08°56' W 015°35'611.7
2018-Feb-03 08:00N 09°01' W 015°38'1811.7
2018-Feb-03 06:30N 09°15' W 015°49'611.7
2018-Feb-03 05:59N 09°19' W 015°53'611.6
2018-Feb-03 05:30N 09°23' W 015°57'611.6
2018-Feb-03 04:57N 09°28' W 016°02'1212.1
2018-Feb-03 04:00N 09°37' W 016°09'612.3
2018-Feb-03 03:30N 09°41' W 016°13'1912.1
2018-Feb-03 01:58N 09°56' W 016°25'612.0
2018-Feb-03 01:30N 10°00' W 016°29'612.0
2018-Feb-03 01:00N 10°05' W 016°32'612.1
2018-Feb-03 00:30N 10°10' W 016°36'612.0
2018-Feb-02 23:58N 10°15' W 016°40'611.9
2018-Feb-02 23:30N 10°19' W 016°44'611.8
2018-Feb-02 23:00N 10°23' W 016°48'611.7
2018-Feb-02 22:29N 10°28' W 016°52'611.7
2018-Feb-02 22:00N 10°33' W 016°55'  

Dump ship's entire track history